Time;durP1;ratioP1;P1;durP2;ratioP2;P2;SDS_P1;SDS_P2;PMS_P1;PMS_P2;Temp;Humidity;BMP_temperature;BMP_pressure;BME280_temperature;BME280_humidity;BME280_pressure;Samples;Min_cycle;Max_cycle;Signal;HPM_P1;HPM_P2
2022/08/01 00:00:01;;;;;;;3.08;2.88;;;;;;;19.53;81.02;101723.69;5038215;28;20068;-74
2022/08/01 00:02:27;;;;;;;3.30;3.10;;;;;;;19.54;81.15;101722.75;5038020;28;20048;-74
2022/08/01 00:04:54;;;;;;;3.75;2.70;;;;;;;19.52;81.09;101725.50;5038415;28;20041;-74
2022/08/01 00:07:19;;;;;;;2.85;2.65;;;;;;;19.52;81.08;101724.66;5037741;28;20041;-74
2022/08/01 00:09:45;;;;;;;3.58;2.97;;;;;;;19.52;81.08;101728.16;5036887;28;20068;-74
2022/08/01 00:12:10;;;;;;;3.40;3.08;;;;;;;19.52;81.14;101729.97;5036669;28;20349;-74
2022/08/01 00:14:36;;;;;;;3.28;2.97;;;;;;;19.51;80.96;101731.75;5038232;28;20045;-74
2022/08/01 00:17:01;;;;;;;3.88;3.20;;;;;;;19.50;81.23;101731.84;5036726;28;20049;-74
2022/08/01 00:19:27;;;;;;;3.58;3.22;;;;;;;19.51;81.59;101736.22;5037305;28;20375;-74
2022/08/01 00:21:52;;;;;;;3.33;3.13;;;;;;;19.51;81.63;101738.88;5038025;28;20039;-74
2022/08/01 00:24:17;;;;;;;4.10;3.28;;;;;;;19.50;81.88;101737.16;5037147;28;20046;-74
2022/08/01 00:26:43;;;;;;;3.35;3.00;;;;;;;19.49;81.39;101744.28;5037659;28;20113;-74
2022/08/01 00:29:08;;;;;;;4.28;3.42;;;;;;;19.48;81.83;101733.75;5053160;28;20068;-74
2022/08/01 00:31:33;;;;;;;3.65;3.13;;;;;;;19.48;81.61;101739.94;5037282;28;20033;-74
2022/08/01 00:33:59;;;;;;;3.33;2.70;;;;;;;19.47;81.62;101732.91;5037691;28;20037;-74
2022/08/01 00:36:24;;;;;;;3.17;2.88;;;;;;;19.46;81.92;101736.50;5037063;28;20197;-74
2022/08/01 00:38:49;;;;;;;4.60;3.17;;;;;;;19.47;81.81;101737.38;5069833;28;20033;-74
2022/08/01 00:41:15;;;;;;;4.22;3.05;;;;;;;19.45;81.55;101742.78;5035963;28;20045;-74
2022/08/01 00:43:40;;;;;;;5.10;3.20;;;;;;;19.45;82.16;101737.47;5036095;28;20025;-74
2022/08/01 00:46:06;;;;;;;5.13;3.50;;;;;;;19.46;82.08;101738.31;5037424;28;20038;-74
2022/08/01 00:48:31;;;;;;;4.10;3.70;;;;;;;19.44;82.20;101727.78;5036804;28;20029;-74
2022/08/01 00:50:57;;;;;;;3.22;2.92;;;;;;;19.44;81.51;101740.22;5019394;28;20049;-74
2022/08/01 00:53:22;;;;;;;3.72;2.80;;;;;;;19.44;80.98;101737.56;5035314;28;20105;-74
2022/08/01 00:55:48;;;;;;;3.72;3.30;;;;;;;19.44;81.20;101735.75;5037281;28;20037;-74
2022/08/01 00:58:14;;;;;;;4.65;3.20;;;;;;;19.44;80.86;101734.91;5037032;28;20218;-74
2022/08/01 01:00:39;;;;;;;3.67;2.90;;;;;;;19.42;80.84;101729.69;5037064;28;20395;-74
2022/08/01 01:03:05;;;;;;;3.13;2.85;;;;;;;19.42;80.94;101736.81;5035998;28;20048;-74
2022/08/01 01:05:36;;;;;;;3.25;2.95;;;;;;;19.42;81.01;101728.84;5035119;28;20398;-74
2022/08/01 01:08:13;;;;;;;3.17;2.83;;;;;;;19.42;81.24;101731.50;5037355;28;20033;-74
2022/08/01 01:10:46;;;;;;;3.17;2.88;;;;;;;19.42;81.38;101731.50;5036929;28;20393;-74
2022/08/01 01:13:28;;;;;;;2.60;2.40;;;;;;;19.41;81.60;101717.38;5036509;28;20095;-74
2022/08/01 01:16:06;;;;;;;2.42;2.22;;;;;;;19.41;81.37;101716.50;5035668;28;20364;-74
2022/08/01 01:18:38;;;;;;;1.40;1.30;;;;;;;19.40;81.26;101725.44;5036623;28;20021;-74
2022/08/01 01:21:18;;;;;;;2.75;1.50;;;;;;;19.39;81.35;101724.56;5037002;28;20214;-74
2022/08/01 01:23:50;;;;;;;1.58;1.48;;;;;;;19.37;81.26;101722.03;5036559;28;20088;-74
2022/08/01 01:26:40;;;;;;;1.20;1.10;;;;;;;19.36;81.44;101722.97;5036180;28;20256;-74
2022/08/01 01:29:17;;;;;;;1.08;1.08;;;;;;;19.36;81.45;101725.63;5036832;28;20040;-74
2022/08/01 01:32:07;;;;;;;1.75;1.00;;;;;;;19.36;81.66;101727.44;5036321;28;20041;-74
2022/08/01 01:34:36;;;;;;;1.92;1.00;;;;;;;19.34;81.42;101722.22;5035732;28;20025;-74
2022/08/01 01:37:06;;;;;;;1.88;1.25;;;;;;;19.34;81.62;101718.72;5036807;28;20029;-74
2022/08/01 01:39:33;;;;;;;1.35;1.20;;;;;;;19.34;81.67;101729.34;5035857;28;20040;-74
2022/08/01 01:42:00;;;;;;;1.30;0.90;;;;;;;19.33;81.97;101727.63;5018752;28;20061;-74
2022/08/01 01:44:27;;;;;;;1.23;0.98;;;;;;;19.32;81.93;101732.06;5035977;28;20240;-74
2022/08/01 01:46:56;;;;;;;1.13;0.93;;;;;;;19.32;82.26;101726.78;5036580;28;20277;-74
2022/08/01 01:49:25;;;;;;;;;;;;;;;19.32;82.82;101734.75;5036147;28;20400;-74
2022/08/01 01:51:53;;;;;;;1.40;1.30;;;;;;;19.31;83.16;101730.38;5036360;28;19919;-74
2022/08/01 01:54:20;;;;;;;2.13;1.03;;;;;;;19.30;83.21;101738.41;5035898;28;20379;-74
2022/08/01 01:56:48;;;;;;;1.50;1.10;;;;;;;19.30;83.22;101730.47;5036575;28;20608;-74
2022/08/01 01:59:16;;;;;;;;;;;;;;;19.29;83.79;101734.06;5036204;28;20061;-74
2022/08/01 02:01:42;;;;;;;0.97;0.97;;;;;;;19.26;83.37;101735.09;5035963;28;19917;-74
2022/08/01 02:04:09;;;;;;;2.90;1.23;;;;;;;19.25;83.66;101730.75;5036186;28;20284;-74
2022/08/01 02:06:37;;;;;;;1.42;1.33;;;;;;;19.24;83.60;101731.69;5035271;28;20037;-74
2022/08/01 02:09:03;;;;;;;1.27;1.17;;;;;;;19.25;83.82;101732.56;5035999;28;20033;-74
2022/08/01 02:11:29;;;;;;;1.27;1.20;;;;;;;19.24;83.89;101741.47;5035312;28;20131;-74
2022/08/01 02:14:02;;;;;;;2.85;1.40;;;;;;;19.24;84.05;101736.16;5034625;28;20352;-74
2022/08/01 02:16:33;;;;;;;1.52;1.35;;;;;;;19.23;84.08;101737.09;5035532;28;20339;-74
2022/08/01 02:18:59;;;;;;;1.25;1.15;;;;;;;19.22;84.36;101738.91;5034592;28;20100;-77
2022/08/01 02:21:34;;;;;;;2.00;1.50;;;;;;;19.22;84.15;101738.91;5035651;28;20041;-77
2022/08/01 02:24:23;;;;;;;1.52;1.40;;;;;;;19.20;84.22;101738.16;5036203;28;20190;-77
2022/08/01 02:26:52;;;;;;;1.50;1.40;;;;;;;19.21;83.93;101742.53;4996616;28;20060;-77
2022/08/01 02:29:23;;;;;;;1.90;1.80;;;;;;;19.21;83.47;101741.66;5035434;28;20033;-77
2022/08/01 02:31:54;;;;;;;1.75;1.40;;;;;;;19.21;83.85;101742.53;5036192;28;20447;-77
2022/08/01 02:34:21;;;;;;;2.25;1.80;;;;;;;19.19;83.76;101739.09;5035370;28;20033;-77
2022/08/01 02:36:48;;;;;;;3.35;1.85;;;;;;;19.19;84.18;101739.09;5035630;28;20075;-77
2022/08/01 02:39:18;;;;;;;1.80;1.70;;;;;;;19.18;84.13;101738.25;5035283;28;20109;-77
2022/08/01 02:41:47;;;;;;;2.38;2.00;;;;;;;19.18;84.09;101745.38;5035532;28;20059;-77
2022/08/01 02:44:37;;;;;;;2.10;1.90;;;;;;;19.18;83.99;101742.72;5033995;28;20072;-77
2022/08/01 02:47:04;;;;;;;1.52;1.42;;;;;;;19.16;84.05;101740.16;5035411;28;20107;-77
2022/08/01 02:49:33;;;;;;;1.90;1.80;;;;;;;19.16;84.14;101734.84;5034951;28;20248;-77
2022/08/01 02:52:00;;;;;;;;;;;;;;;19.16;84.36;101734.00;5034956;28;20033;-77
2022/08/01 02:54:27;;;;;;;4.18;1.92;;;;;;;19.15;84.44;101735.78;5066868;28;20007;-77
2022/08/01 02:56:55;;;;;;;1.70;1.60;;;;;;;19.13;84.29;101740.34;5036411;28;20316;-76
2022/08/01 02:59:25;;;;;;;1.95;1.83;;;;;;;19.13;83.95;101739.50;5036075;28;20067;-76
2022/08/01 03:01:53;;;;;;;2.17;1.50;;;;;;;19.12;83.69;101743.97;5036334;28;20112;-76
2022/08/01 03:04:20;;;;;;;4.30;1.90;;;;;;;19.11;83.24;101741.41;5036272;28;20316;-76
2022/08/01 03:06:46;;;;;;;2.75;2.08;;;;;;;19.12;83.19;101738.66;5018616;28;20176;-76
2022/08/01 03:09:13;;;;;;;2.53;2.35;;;;;;;19.12;83.45;101745.78;5034359;28;20056;-76
2022/08/01 03:11:41;;;;;;;3.28;2.00;;;;;;;19.13;83.68;101744.81;5036270;28;20033;-76
2022/08/01 03:14:08;;;;;;;1.70;1.60;;;;;;;19.10;82.47;101744.97;5036133;28;20060;-76
2022/08/01 03:16:37;;;;;;;4.05;2.15;;;;;;;19.09;82.29;101745.94;5035730;28;20047;-76
2022/08/01 03:19:04;;;;;;;1.88;1.77;;;;;;;19.10;82.00;101747.63;5035940;28;20036;-76
2022/08/01 03:21:31;;;;;;;3.25;1.80;;;;;;;19.10;81.63;101752.94;5035785;28;20034;-76
2022/08/01 03:23:59;;;;;;;2.20;2.00;;;;;;;19.09;81.78;101754.75;5034858;28;20045;-76
2022/08/01 03:26:30;;;;;;;1.60;1.50;;;;;;;19.09;81.62;101752.09;5035270;28;20065;-76
2022/08/01 03:29:01;;;;;;;1.60;1.27;;;;;;;19.09;81.49;101746.78;5034792;28;20029;-76
2022/08/01 03:31:28;;;;;;;1.20;1.10;;;;;;;19.09;81.68;101745.94;5037574;28;20044;-76
2022/08/01 03:33:54;;;;;;;1.15;1.00;;;;;;;19.09;81.83;101751.25;5039888;28;20107;-76
2022/08/01 03:36:26;;;;;;;1.20;1.10;;;;;;;19.08;81.79;101747.75;5039022;28;20053;-76
2022/08/01 03:38:55;;;;;;;1.38;1.00;;;;;;;19.09;82.41;101745.94;5039735;28;20037;-76
2022/08/01 03:41:25;;;;;;;1.55;1.20;;;;;;;19.08;82.80;101757.50;5038976;28;20033;-76
2022/08/01 03:44:01;;;;;;;1.00;0.98;;;;;;;19.07;83.02;101756.66;5038325;28;20208;-76
2022/08/01 03:46:33;;;;;;;0.90;0.90;;;;;;;19.06;83.24;101757.59;5039041;28;20029;-76
2022/08/01 03:49:03;;;;;;;1.15;0.77;;;;;;;19.05;82.79;101752.41;5039724;28;20064;-76
2022/08/01 03:51:30;;;;;;;0.60;0.50;;;;;;;19.03;82.20;101749.84;5038914;28;20352;-76
2022/08/01 03:53:59;;;;;;;0.60;0.60;;;;;;;19.03;81.69;101756.94;5038167;28;20329;-76
2022/08/01 03:56:25;;;;;;;0.65;0.57;;;;;;;19.02;81.35;101745.47;5038530;28;20067;-76
2022/08/01 03:58:51;;;;;;;0.55;0.50;;;;;;;19.02;81.49;101750.78;5038233;28;20017;-76
2022/08/01 04:01:18;;;;;;;0.70;0.65;;;;;;;19.02;81.38;101750.78;5037609;28;20354;-76
2022/08/01 04:03:44;;;;;;;1.15;0.68;;;;;;;19.03;81.70;101748.97;5039289;28;20252;-76
2022/08/01 04:06:10;;;;;;;0.60;0.60;;;;;;;19.02;81.94;101748.13;5039432;28;20249;-76
2022/08/01 04:08:40;;;;;;;0.90;0.63;;;;;;;19.02;81.60;101742.81;5037657;28;20052;-76
2022/08/01 04:11:07;;;;;;;0.65;0.57;;;;;;;19.01;81.42;101742.91;5038812;28;20041;-76
2022/08/01 04:13:32;;;;;;;0.75;0.63;;;;;;;19.01;81.51;101748.22;5038417;28;20260;-76
2022/08/01 04:15:58;;;;;;;0.73;0.65;;;;;;;18.99;81.65;101751.84;5031343;28;20022;-76
2022/08/01 04:18:24;;;;;;;1.50;0.63;;;;;;;18.98;81.90;101758.06;5015929;28;20115;-76
2022/08/01 04:20:50;;;;;;;1.10;0.60;;;;;;;18.97;81.59;101759.03;5016542;28;20341;-76
2022/08/01 04:23:17;;;;;;;1.58;0.77;;;;;;;18.98;81.81;101758.06;5017109;28;20041;-76
2022/08/01 04:25:45;;;;;;;0.63;0.63;;;;;;;18.96;81.39;101756.47;5017406;28;20512;-76
2022/08/01 04:28:16;;;;;;;0.90;0.52;;;;;;;18.95;80.96;101755.59;5017437;28;20233;-76
2022/08/01 04:30:44;;;;;;;0.60;0.60;;;;;;;18.94;80.81;101759.22;5017031;28;20038;-76
2022/08/01 04:33:13;;;;;;;1.00;0.60;;;;;;;18.95;80.78;101768.03;5017289;28;20037;-76
2022/08/01 04:35:45;;;;;;;0.88;0.57;;;;;;;18.93;80.71;101756.66;5017492;28;20293;-76
2022/08/01 04:38:12;;;;;;;1.42;0.80;;;;;;;18.93;80.67;101760.16;5026108;28;20115;-76
2022/08/01 04:40:40;;;;;;;1.52;0.90;;;;;;;18.94;80.71;101769.00;5036748;28;20412;-76
2022/08/01 04:43:06;;;;;;;1.03;1.03;;;;;;;18.93;80.68;101762.81;5036692;28;20037;-76
2022/08/01 04:45:32;;;;;;;1.70;0.75;;;;;;;18.94;80.58;101763.69;5035079;28;20029;-76
2022/08/01 04:47:59;;;;;;;3.88;1.13;;;;;;;18.93;80.88;101765.47;5036986;28;20096;-76
2022/08/01 04:50:25;;;;;;;0.90;0.90;;;;;;;18.93;80.84;101762.81;5036015;28;20371;-76
2022/08/01 04:52:51;;;;;;;1.13;0.85;;;;;;;18.92;80.99;101766.44;5035318;28;20068;-76
2022/08/01 04:55:17;;;;;;;1.08;0.95;;;;;;;18.94;81.26;101771.66;5051326;28;20035;-76
2022/08/01 04:57:44;;;;;;;1.20;0.93;;;;;;;18.93;81.42;101773.41;5068616;28;20061;-76
2022/08/01 05:00:10;;;;;;;1.45;0.90;;;;;;;18.93;81.59;101776.06;5036769;28;20294;-76
2022/08/01 05:02:36;;;;;;;2.42;1.00;;;;;;;18.94;82.10;101772.50;5036437;28;20053;-76
2022/08/01 05:05:02;;;;;;;2.35;1.00;;;;;;;18.93;81.90;101772.59;5035127;28;20106;-76
2022/08/01 05:07:27;;;;;;;2.28;1.05;;;;;;;18.93;81.86;101770.78;5036235;28;20068;-76
2022/08/01 05:09:52;;;;;;;1.23;1.00;;;;;;;18.93;82.12;101776.06;5036669;28;20040;-76
2022/08/01 05:12:18;;;;;;;0.95;0.80;;;;;;;18.93;82.71;101773.41;5036256;28;20061;-76
2022/08/01 05:14:44;;;;;;;0.98;0.80;;;;;;;18.94;82.38;101774.31;5035818;28;20034;-76
2022/08/01 05:17:10;;;;;;;1.55;0.80;;;;;;;18.94;82.11;101772.50;5036579;28;20383;-76
2022/08/01 05:19:37;;;;;;;0.68;0.65;;;;;;;18.94;82.04;101771.66;5036505;28;20111;-76
2022/08/01 05:22:08;;;;;;;1.00;1.00;;;;;;;18.93;81.48;101772.59;5035011;28;20029;-76
2022/08/01 05:24:38;;;;;;;1.15;0.90;;;;;;;18.93;81.06;101772.59;5035690;28;20090;-76
2022/08/01 05:27:04;;;;;;;1.23;1.05;;;;;;;18.93;80.68;101770.78;5036365;28;20040;-76
2022/08/01 05:29:30;;;;;;;0.98;0.80;;;;;;;18.94;81.52;101763.69;5035435;28;20048;-76
2022/08/01 05:31:57;;;;;;;1.20;1.10;;;;;;;18.94;82.16;101769.84;5035017;28;20111;-76
2022/08/01 05:34:22;;;;;;;1.52;0.70;;;;;;;18.94;82.22;101767.19;5035637;28;20079;-76
2022/08/01 05:36:48;;;;;;;0.75;0.73;;;;;;;18.93;81.50;101765.47;5036109;28;20041;-76
2022/08/01 05:39:14;;;;;;;1.38;0.68;;;;;;;18.92;81.57;101771.75;5035645;28;20040;-76
2022/08/01 05:41:40;;;;;;;0.80;0.80;;;;;;;18.95;82.08;101778.66;5035624;28;20481;-76
2022/08/01 05:44:06;;;;;;;0.60;0.60;;;;;;;18.94;82.78;101782.25;5035718;28;20049;-76
2022/08/01 05:46:33;;;;;;;1.27;1.05;;;;;;;18.95;83.10;101789.25;5035293;28;20067;-76
2022/08/01 05:48:59;;;;;;;1.00;1.00;;;;;;;18.94;83.69;101775.16;5035831;28;20037;-76
2022/08/01 05:51:24;;;;;;;1.30;1.00;;;;;;;18.94;83.72;101775.16;5034778;28;20352;-76
2022/08/01 05:53:50;;;;;;;1.10;0.93;;;;;;;18.95;84.19;101783.94;5034902;28;20078;-76
2022/08/01 05:56:16;;;;;;;1.77;1.35;;;;;;;18.94;84.50;101776.94;5035087;28;20132;-76
2022/08/01 05:58:41;;;;;;;1.33;1.17;;;;;;;18.93;84.55;101781.38;5035393;28;20037;-76
2022/08/01 06:01:06;;;;;;;3.35;1.10;;;;;;;18.94;84.73;101788.41;5034101;28;20244;-76
2022/08/01 06:03:33;;;;;;;2.55;1.10;;;;;;;18.94;84.89;101784.91;5034349;28;20040;-76
2022/08/01 06:05:59;;;;;;;2.25;1.27;;;;;;;18.93;85.03;101791.16;5033949;28;20321;-76
2022/08/01 06:08:24;;;;;;;1.42;1.30;;;;;;;18.93;85.13;101796.47;5034726;28;20064;-76
2022/08/01 06:10:50;;;;;;;1.40;1.30;;;;;;;18.94;85.53;101803.50;5033520;28;20459;-76
2022/08/01 06:13:15;;;;;;;1.60;1.50;;;;;;;18.93;85.33;101801.78;5034257;28;20041;-76
2022/08/01 06:15:41;;;;;;;1.85;1.67;;;;;;;18.92;85.57;101798.28;5034680;28;20387;-76
2022/08/01 06:18:06;;;;;;;2.50;1.58;;;;;;;18.91;85.67;101807.16;5035253;28;20045;-76
2022/08/01 06:20:31;;;;;;;1.42;1.30;;;;;;;18.92;86.01;101802.75;5034571;28;20056;-76
2022/08/01 06:22:57;;;;;;;1.48;1.30;;;;;;;18.92;86.09;101805.41;5035038;28;20049;-75
2022/08/01 06:25:22;;;;;;;1.70;1.60;;;;;;;18.92;86.30;101810.69;5032797;28;20045;-76
2022/08/01 06:27:49;;;;;;;1.60;1.50;;;;;;;18.92;86.58;101810.69;5034607;28;20037;-76
2022/08/01 06:30:15;;;;;;;1.40;1.33;;;;;;;18.91;86.93;101815.13;5034669;28;20065;-76
2022/08/01 06:32:40;;;;;;;3.15;1.63;;;;;;;18.90;87.11;101818.75;5027137;28;20391;-77
2022/08/01 06:35:06;;;;;;;1.90;1.75;;;;;;;18.89;87.04;101814.38;5031784;28;20025;-76
2022/08/01 06:37:32;;;;;;;1.88;1.77;;;;;;;18.88;87.04;101812.69;5032689;28;20042;-76
2022/08/01 06:40:05;;;;;;;2.20;2.00;;;;;;;18.87;87.24;101826.88;5034263;28;20104;-76
2022/08/01 06:42:35;;;;;;;2.00;1.90;;;;;;;18.86;87.56;101832.28;5032648;28;20037;-76
2022/08/01 06:45:02;;;;;;;2.30;2.05;;;;;;;18.85;87.54;101831.44;5034271;28;20056;-76
2022/08/01 06:47:27;;;;;;;2.20;2.00;;;;;;;18.85;87.62;101835.91;5033728;28;20033;-76
2022/08/01 06:49:53;;;;;;;2.58;2.30;;;;;;;18.84;87.62;101835.03;5026733;28;20052;-76
2022/08/01 06:52:18;;;;;;;2.33;2.20;;;;;;;18.85;87.67;101833.25;5045527;28;20291;-76
2022/08/01 06:54:43;;;;;;;2.45;2.25;;;;;;;18.84;87.60;101840.34;5034131;28;20360;-76
2022/08/01 06:57:09;;;;;;;4.47;3.20;;;;;;;18.83;87.70;101836.00;5032781;28;20321;-76
2022/08/01 06:59:34;;;;;;;5.85;2.92;;;;;;;18.80;87.72;101842.28;5032235;28;20213;-76
2022/08/01 07:02:02;;;;;;;3.75;2.70;;;;;;;18.78;88.32;101838.03;5032785;28;20041;-76
2022/08/01 07:04:28;;;;;;;3.55;2.88;;;;;;;18.77;88.33;101844.25;5033843;28;20037;-76
2022/08/01 07:06:53;;;;;;;3.95;2.80;;;;;;;18.76;88.13;101847.88;5033768;28;20041;-77
2022/08/01 07:09:19;;;;;;;3.38;2.40;;;;;;;18.74;87.95;101853.28;5036207;28;20109;-76
2022/08/01 07:11:44;;;;;;;5.70;2.70;;;;;;;18.71;87.62;101863.22;5019856;28;20033;-76
2022/08/01 07:14:09;;;;;;;7.65;2.83;;;;;;;18.69;87.49;101852.69;5036909;28;20321;-77
2022/08/01 07:16:35;;;;;;;8.20;3.20;;;;;;;18.69;87.35;101859.78;5037667;28;20090;-77
2022/08/01 07:19:00;;;;;;;3.90;2.35;;;;;;;18.68;87.22;101858.06;5038006;28;20096;-77
2022/08/01 07:21:26;;;;;;;7.60;3.50;;;;;;;18.67;87.19;101859.03;5037689;28;20040;-77
2022/08/01 07:23:51;;;;;;;7.20;3.33;;;;;;;18.65;87.35;101858.28;5037098;28;20052;-77
2022/08/01 07:26:17;;;;;;;4.00;2.88;;;;;;;18.64;87.49;101867.16;5037386;28;20389;-77
2022/08/01 07:28:42;;;;;;;10.25;3.22;;;;;;;18.61;87.34;101873.53;5037365;28;20060;-77
2022/08/01 07:31:08;;;;;;;7.15;2.90;;;;;;;18.59;87.24;101870.94;5036711;28;20049;-77
2022/08/01 07:33:33;;;;;;;5.63;3.05;;;;;;;18.59;87.81;101878.91;5033313;28;20030;-77
2022/08/01 07:35:59;;;;;;;9.07;3.70;;;;;;;18.54;88.02;101880.97;5031289;28;20040;-77
2022/08/01 07:38:24;;;;;;;11.68;3.35;;;;;;;18.55;88.02;101887.13;4999620;28;20048;-77
2022/08/01 07:40:49;;;;;;;7.72;3.53;;;;;;;18.54;87.77;101880.97;5035371;28;20072;-77
2022/08/01 07:43:16;;;;;;;10.50;3.45;;;;;;;18.54;87.86;101878.31;5037316;28;20273;-77
2022/08/01 07:45:41;;;;;;;8.80;3.35;;;;;;;18.52;87.76;101888.16;5035662;28;20037;-77
2022/08/01 07:48:07;;;;;;;10.15;3.53;;;;;;;18.54;87.52;101888.09;5037465;28;20063;-77
2022/08/01 07:50:33;;;;;;;7.50;3.58;;;;;;;18.53;87.74;101889.00;5034955;28;20306;-77
2022/08/01 07:52:58;;;;;;;10.13;3.25;;;;;;;18.52;87.97;101890.81;5036419;28;20037;-77
2022/08/01 07:55:24;;;;;;;10.40;3.90;;;;;;;18.50;87.46;101895.34;5036630;28;20378;-77
2022/08/01 07:57:50;;;;;;;8.75;3.42;;;;;;;18.50;87.59;101895.34;5037170;28;20260;-77
2022/08/01 08:00:16;;;;;;;9.23;3.33;;;;;;;18.47;87.40;101892.88;5044655;28;20348;-77
2022/08/01 08:02:42;;;;;;;8.07;3.50;;;;;;;18.46;87.26;101888.50;5037049;28;20041;-77
2022/08/01 08:05:07;;;;;;;14.00;3.80;;;;;;;18.41;87.16;101888.78;5035457;28;20041;-77
2022/08/01 08:07:33;;;;;;;15.02;4.88;;;;;;;18.41;87.00;101890.59;5035360;28;20344;-77
2022/08/01 08:09:58;;;;;;;12.65;4.07;;;;;;;18.32;87.85;101893.72;5035770;28;20039;-77
2022/08/01 08:12:24;;;;;;;13.02;4.70;;;;;;;18.31;87.94;101897.34;5035063;28;20045;-77
2022/08/01 08:14:49;;;;;;;11.70;4.35;;;;;;;18.33;87.86;101891.00;5036731;28;20040;-77
2022/08/01 08:17:15;;;;;;;8.40;3.20;;;;;;;18.38;88.13;101904.00;5034313;28;20417;-77
2022/08/01 08:19:40;;;;;;;11.43;4.15;;;;;;;18.40;88.11;101899.47;5068506;28;20329;-77
2022/08/01 08:22:08;;;;;;;13.82;4.38;;;;;;;18.38;88.16;101904.84;5041229;28;20451;-77
2022/08/01 08:24:34;;;;;;;8.80;3.40;;;;;;;18.42;88.01;101913.50;5039669;28;20053;-77
2022/08/01 08:27:00;;;;;;;11.52;4.38;;;;;;;18.45;87.76;101909.81;5036772;28;20234;-77
2022/08/01 08:29:27;;;;;;;8.63;3.40;;;;;;;18.48;87.68;101918.47;5034651;28;20111;-77
2022/08/01 08:31:54;;;;;;;11.88;3.67;;;;;;;18.48;87.51;101918.47;5036762;28;20033;-77
2022/08/01 08:34:19;;;;;;;8.30;3.10;;;;;;;18.51;87.16;101909.47;5068134;28;20049;-77
2022/08/01 08:36:45;;;;;;;10.57;2.97;;;;;;;18.52;86.90;101914.69;5034953;28;20088;-77
2022/08/01 08:39:10;;;;;;;4.97;3.15;;;;;;;18.53;86.74;101921.69;5035694;28;20045;-77
2022/08/01 08:41:36;;;;;;;9.93;3.50;;;;;;;18.50;85.90;101915.69;5036084;28;20044;-77
2022/08/01 08:44:03;;;;;;;10.55;3.35;;;;;;;18.48;85.25;101915.81;5036077;28;20417;-77
2022/08/01 08:46:32;;;;;;;8.30;3.15;;;;;;;18.51;85.45;101906.81;5034407;28;20120;-76
2022/08/01 08:48:58;;;;;;;8.15;2.80;;;;;;;18.53;85.48;101923.50;5036402;28;20056;-77
2022/08/01 08:51:26;;;;;;;7.38;3.10;;;;;;;18.55;85.45;101926.91;5035452;28;20033;-77
2022/08/01 08:53:55;;;;;;;7.85;3.03;;;;;;;18.59;85.01;101923.13;5034172;28;20359;-76
2022/08/01 08:56:21;;;;;;;9.65;3.13;;;;;;;18.58;85.23;101916.13;5035619;28;20132;-77
2022/08/01 08:58:46;;;;;;;11.18;3.05;;;;;;;18.61;84.88;101926.56;5035940;28;20056;-76
2022/08/01 09:01:12;;;;;;;7.38;2.63;;;;;;;18.65;84.77;101929.91;5035661;28;20371;-77
2022/08/01 09:03:38;;;;;;;4.50;2.50;;;;;;;18.67;84.70;101933.31;5035212;28;20233;-76
2022/08/01 09:06:04;;;;;;;6.05;2.90;;;;;;;18.68;84.17;101930.59;5035381;28;20040;-77
2022/08/01 09:08:30;;;;;;;7.65;2.70;;;;;;;18.67;83.40;101923.56;5032261;28;20785;-76
2022/08/01 09:10:55;;;;;;;5.85;2.67;;;;;;;18.67;83.50;101938.63;5036005;28;20332;-76
2022/08/01 09:13:21;;;;;;;9.90;2.80;;;;;;;18.66;83.31;101942.22;5035101;28;20100;-76
2022/08/01 09:15:54;;;;;;;6.80;2.90;;;;;;;18.70;83.38;101943.75;5033927;28;20037;-76
2022/08/01 09:18:40;;;;;;;8.88;2.75;;;;;;;18.69;82.54;101940.25;5034794;28;20345;-76
2022/08/01 09:21:05;;;;;;;5.90;2.28;;;;;;;18.70;82.59;101939.31;5035644;28;20116;-77
2022/08/01 09:23:34;;;;;;;5.22;1.92;;;;;;;18.72;82.20;101940.06;5033396;28;20064;-76
2022/08/01 09:26:00;;;;;;;5.15;2.15;;;;;;;18.73;81.95;101938.25;5033860;28;20053;-76
2022/08/01 09:28:30;;;;;;;12.70;2.25;;;;;;;18.71;82.08;101943.66;5015504;28;20044;-77
2022/08/01 09:30:56;;;;;;;10.35;2.28;;;;;;;18.72;81.08;101947.16;5035519;28;20037;-76
2022/08/01 09:33:21;;;;;;;7.30;2.45;;;;;;;18.73;81.21;101949.72;5027872;28;20362;-76
2022/08/01 09:35:55;;;;;;;4.40;2.17;;;;;;;18.76;81.05;101943.41;5028520;28;20079;-76
2022/08/01 09:38:22;;;;;;;4.90;2.25;;;;;;;18.76;81.04;101946.91;5034819;28;20418;-76
2022/08/01 09:40:59;;;;;;;7.53;2.10;;;;;;;18.78;81.32;101945.00;5035078;28;20071;-76
2022/08/01 09:43:27;;;;;;;5.63;2.22;;;;;;;18.79;80.82;101949.41;5034555;28;20045;-76
2022/08/01 09:45:53;;;;;;;7.97;2.45;;;;;;;18.83;80.33;101963.38;5034799;28;20072;-76
2022/08/01 09:48:20;;;;;;;4.90;2.22;;;;;;;18.83;80.27;101959.84;5034906;28;20029;-76
2022/08/01 09:50:48;;;;;;;7.18;2.55;;;;;;;18.83;79.95;101959.84;5035014;28;20075;-76
2022/08/01 09:53:15;;;;;;;7.47;3.00;;;;;;;18.84;79.50;101965.06;5034502;28;20037;-76
2022/08/01 09:55:41;;;;;;;7.20;2.60;;;;;;;18.85;79.47;101960.63;5034778;28;20037;-76
2022/08/01 09:58:08;;;;;;;6.00;2.67;;;;;;;18.87;79.10;101956.94;5034646;28;20037;-76
2022/08/01 10:00:34;;;;;;;5.72;2.38;;;;;;;18.91;79.98;101957.63;5034556;28;20038;-76
2022/08/01 10:03:18;;;;;;;8.27;2.05;;;;;;;18.95;80.04;101954.69;5034683;28;20041;-76
2022/08/01 10:05:44;;;;;;;7.47;2.13;;;;;;;18.98;79.11;101959.81;5034443;28;20301;-76
2022/08/01 10:08:10;;;;;;;5.55;2.38;;;;;;;19.03;79.31;101964.88;5034500;28;20344;-77
2022/08/01 10:10:35;;;;;;;5.07;2.00;;;;;;;19.06;78.76;101961.16;5034371;28;20107;-76
2022/08/01 10:13:02;;;;;;;7.88;2.90;;;;;;;19.08;78.59;101949.53;5033820;28;20070;-76
2022/08/01 10:15:28;;;;;;;10.07;2.40;;;;;;;19.11;78.37;101945.81;5034128;28;20097;-76
2022/08/01 10:17:56;;;;;;;6.43;2.13;;;;;;;19.13;76.90;101954.56;5034214;28;20041;-76
2022/08/01 10:20:31;;;;;;;4.60;1.55;;;;;;;19.12;76.03;101947.53;5033977;28;20348;-76
2022/08/01 10:23:00;;;;;;;8.93;2.20;;;;;;;19.13;76.11;101949.25;5034305;28;20239;-77
2022/08/01 10:25:28;;;;;;;8.60;2.40;;;;;;;19.11;75.06;101948.47;5034038;28;20052;-76
2022/08/01 10:27:57;;;;;;;5.90;2.10;;;;;;;19.13;75.13;101958.06;5033971;28;20037;-76
2022/08/01 10:30:23;;;;;;;7.63;2.80;;;;;;;19.14;75.71;101954.47;5033668;28;20261;-76
2022/08/01 10:32:51;;;;;;;3.60;1.90;;;;;;;19.16;75.96;101949.06;5032078;28;20321;-76
2022/08/01 10:35:18;;;;;;;9.57;2.80;;;;;;;19.17;75.95;101953.41;5023143;28;20028;-76
2022/08/01 10:37:45;;;;;;;8.45;2.45;;;;;;;19.17;75.94;101954.28;5033740;28;20108;-76
2022/08/01 10:40:15;;;;;;;7.00;2.30;;;;;;;19.17;75.72;101956.06;5032932;28;20079;-77
2022/08/01 10:42:45;;;;;;;7.43;2.58;;;;;;;19.17;76.40;101954.28;5033001;28;20391;-77
2022/08/01 10:45:14;;;;;;;8.95;2.22;;;;;;;19.19;75.42;101962.13;5033187;28;20030;-76
2022/08/01 10:47:55;;;;;;;5.20;2.20;;;;;;;19.23;75.52;101962.81;5032553;28;20116;-76
2022/08/01 10:50:43;;;;;;;5.25;2.13;;;;;;;19.24;75.51;101962.72;5033882;28;20047;-77
2022/08/01 10:53:15;;;;;;;5.70;1.60;;;;;;;19.25;74.25;101960.94;5034065;28;20040;-77
2022/08/01 10:55:51;;;;;;;3.13;1.38;;;;;;;19.26;74.18;101959.97;5033795;28;20100;-76
2022/08/01 10:58:26;;;;;;;3.63;1.60;;;;;;;19.25;73.29;101966.25;5033745;28;20037;-76
2022/08/01 11:01:24;;;;;;;2.72;1.33;;;;;;;19.26;73.88;101970.59;5033994;28;20078;-76
2022/08/01 11:04:04;;;;;;;2.67;1.40;;;;;;;19.28;73.92;101977.56;5033655;28;20100;-76
2022/08/01 11:06:33;;;;;;;10.95;2.00;;;;;;;19.34;74.21;101969.22;5033226;28;20363;-76
2022/08/01 11:09:02;;;;;;;5.20;1.95;;;;;;;19.40;74.01;101970.63;5034017;28;20045;-77
2022/08/01 11:11:27;;;;;;;5.97;1.50;;;;;;;19.45;72.23;101970.38;5033271;28;20248;-76
2022/08/01 11:14:00;;;;;;;4.13;1.58;;;;;;;19.49;72.60;101969.25;5033759;28;20117;-76
2022/08/01 11:16:34;;;;;;;5.10;1.73;;;;;;;19.51;72.45;101973.50;5033280;28;20145;-76
2022/08/01 11:19:00;;;;;;;7.45;2.33;;;;;;;19.54;72.08;101965.34;5032506;28;20117;-77
2022/08/01 11:21:56;;;;;;;5.35;2.00;;;;;;;19.56;72.45;101968.75;5033486;28;20041;-77
2022/08/01 11:24:47;;;;;;;5.32;2.22;;;;;;;19.58;71.89;101963.38;5031413;28;20284;-77
2022/08/01 11:27:16;;;;;;;6.25;2.03;;;;;;;19.56;70.15;101979.38;5021471;28;20035;-77